createdAt,value
2022-08-14T00:04:47.351Z,95177.25
2022-08-14T00:07:14.605Z,95187.78
2022-08-14T00:10:02.457Z,95169.09
2022-08-14T00:12:33.551Z,95179.84
2022-08-14T00:15:18.519Z,95179.34
2022-08-14T00:17:47.137Z,95170.72
2022-08-14T00:20:15.909Z,95170.66
2022-08-14T00:38:25.484Z,95154.19
2022-08-14T00:40:53.782Z,95153.16
2022-08-14T00:43:21.284Z,95148.28
2022-08-14T00:45:52.776Z,95149.84
2022-08-14T00:48:34.676Z,95152.88
2022-08-14T00:51:05.155Z,95151.34
2022-08-14T00:53:32.462Z,95147.84
2022-08-14T01:11:36.256Z,95132.47
2022-08-14T01:14:18.190Z,95130.91
2022-08-14T01:16:52.988Z,95137.44
2022-08-14T01:19:38.767Z,95130.75
2022-08-14T01:22:12.421Z,95126.88
2022-08-14T01:24:43.597Z,95125.72
2022-08-14T01:27:16.093Z,95122.91
2022-08-14T01:30:04.329Z,95126.50
2022-08-14T01:32:37.347Z,95122.38
2022-08-14T01:35:18.069Z,95123.81
2022-08-14T01:37:56.061Z,95112.69
2022-08-14T01:40:36.307Z,95108.03
2022-08-14T01:43:13.645Z,95108.56
2022-08-14T01:45:41.626Z,95096.13
2022-08-14T01:48:13.927Z,95097.34
2022-08-14T01:50:45.077Z,95090.19
2022-08-14T01:53:14.653Z,95083.75
2022-08-14T01:55:42.753Z,95073.53
2022-08-14T01:58:19.689Z,95059.66
2022-08-14T02:07:55.978Z,95044.06
2022-08-14T02:10:29.009Z,95052.63
2022-08-14T02:15:50.305Z,95053.22
2022-08-14T02:18:18.568Z,95054.75
2022-08-14T02:23:32.576Z,95051.44
2022-08-14T02:26:18.382Z,95052.94
2022-08-14T02:29:00.798Z,95038.06
2022-08-14T02:31:42.291Z,95048.03
2022-08-14T02:34:22.261Z,95041.84
2022-08-14T02:37:04.002Z,95051.69
2022-08-14T02:39:37.805Z,95047.41
2022-08-14T02:42:12.971Z,95045.34
2022-08-14T02:44:48.788Z,95040.16
2022-08-14T02:47:20.840Z,95041.81
2022-08-14T02:49:54.573Z,95042.91
2022-08-14T02:52:56.715Z,95040.09
2022-08-14T02:55:11.470Z,95038.81
2022-08-14T02:57:44.938Z,95037.41
2022-08-14T03:00:21.590Z,95031.06
2022-08-14T03:02:58.790Z,95031.25
2022-08-14T03:05:35.895Z,95028.00
2022-08-14T03:08:09.736Z,95021.72
2022-08-14T03:10:42.077Z,95026.34
2022-08-14T03:13:21.127Z,95026.25
2022-08-14T03:15:55.686Z,95018.13
2022-08-14T03:18:31.679Z,95013.63
2022-08-14T03:21:03.102Z,95020.84
2022-08-14T03:23:38.436Z,95013.25
2022-08-14T03:26:30.402Z,95007.78
2022-08-14T03:29:01.556Z,95005.09
2022-08-14T03:31:30.406Z,95000.16
2022-08-14T03:34:00.169Z,95009.88
2022-08-14T03:37:37.767Z,95000.69
2022-08-14T03:39:23.983Z,94998.22
2022-08-14T03:41:53.904Z,94991.06
2022-08-14T03:45:26.634Z,94989.72
2022-08-14T03:47:15.343Z,94991.97
2022-08-14T03:49:43.977Z,94992.28
2022-08-14T03:52:38.596Z,94993.47
2022-08-14T03:55:03.603Z,95000.06
2022-08-14T03:57:36.994Z,94998.72
2022-08-14T04:00:13.594Z,95002.38
2022-08-14T04:02:55.742Z,94992.28
2022-08-14T04:05:26.316Z,94981.56
2022-08-14T04:08:08.228Z,94982.34
2022-08-14T04:10:42.100Z,94979.88
2022-08-14T04:13:10.220Z,94985.34
2022-08-14T04:15:55.983Z,94984.97
2022-08-14T04:18:27.512Z,94978.25
2022-08-14T04:20:58.147Z,94980.31
2022-08-14T04:23:29.584Z,94973.84
2022-08-14T04:26:00.676Z,94976.72
2022-08-14T04:29:07.151Z,94977.34
2022-08-14T04:32:56.412Z,94989.50
2022-08-14T04:34:08.515Z,94985.00
2022-08-14T04:36:59.071Z,94986.69
2022-08-14T04:45:23.071Z,94960.56
2022-08-14T04:48:10.420Z,94959.53
2022-08-14T04:50:43.972Z,94956.72
2022-08-14T04:53:13.414Z,94968.75
2022-08-14T04:55:42.175Z,94954.81
2022-08-14T04:58:09.456Z,94962.19
2022-08-14T05:08:32.099Z,94957.69
2022-08-14T05:11:44.108Z,94939.63
2022-08-14T05:24:27.203Z,94942.25
2022-08-14T05:27:08.557Z,94942.94
2022-08-14T05:30:10.808Z,94945.75
2022-08-14T05:32:43.220Z,94940.38
2022-08-14T05:39:22.486Z,94952.31
2022-08-14T05:41:53.698Z,94945.69
2022-08-14T05:44:20.661Z,94944.69
2022-08-14T05:46:47.330Z,94943.88
2022-08-14T05:49:13.752Z,94950.94
2022-08-14T05:51:40.551Z,94946.50
2022-08-14T05:54:13.516Z,94953.78
2022-08-14T06:01:51.032Z,94955.91
2022-08-14T06:04:17.564Z,94953.03
2022-08-14T06:06:43.903Z,94955.09
2022-08-14T06:09:10.318Z,94960.84
2022-08-14T06:11:36.904Z,94953.53
2022-08-14T06:14:03.628Z,94964.03
2022-08-14T06:16:33.144Z,94957.13
2022-08-14T06:24:00.719Z,94954.56
2022-08-14T06:26:30.358Z,94963.50
2022-08-14T06:28:56.945Z,94957.63
2022-08-14T06:31:23.648Z,94955.75
2022-08-14T06:35:11.583Z,94964.09
2022-08-14T06:37:35.671Z,94964.75
2022-08-14T06:40:07.217Z,94968.84
2022-08-14T06:45:53.713Z,94961.34
2022-08-14T06:48:24.807Z,94955.38
2022-08-14T06:50:54.836Z,94949.31
2022-08-14T06:53:28.162Z,94939.63
2022-08-14T06:55:58.312Z,94945.53
2022-08-14T06:58:31.255Z,94954.06
2022-08-14T07:01:26.781Z,94951.22
2022-08-14T07:04:22.944Z,94941.66
2022-08-14T07:06:55.429Z,94939.41
2022-08-14T07:16:44.202Z,94924.38
2022-08-14T07:30:03.945Z,94909.50
2022-08-14T07:32:35.119Z,94909.13
2022-08-14T07:35:04.586Z,94904.47
2022-08-14T07:37:33.539Z,94902.63
2022-08-14T07:40:04.521Z,94897.94
2022-08-14T07:42:32.529Z,94893.28
2022-08-14T07:45:00.591Z,94883.69
2022-08-14T07:47:28.701Z,94884.75
2022-08-14T07:50:02.795Z,94888.22
2022-08-14T07:52:32.008Z,94885.56
2022-08-14T07:55:01.398Z,94879.44
2022-08-14T07:57:30.528Z,94874.53
2022-08-14T08:00:34.785Z,94870.91
2022-08-14T08:18:38.753Z,94874.44
2022-08-14T08:21:11.906Z,94868.94
2022-08-14T08:24:00.438Z,94866.69
2022-08-14T08:26:35.941Z,94874.03
2022-08-14T08:29:09.368Z,94868.34
2022-08-14T08:31:52.765Z,94875.06
2022-08-14T08:34:23.777Z,94878.09
2022-08-14T08:37:15.959Z,94866.06
2022-08-14T08:40:03.039Z,94881.13
2022-08-14T08:42:38.365Z,94873.59
2022-08-14T08:45:12.491Z,94870.53
2022-08-14T08:47:42.183Z,94877.00
2022-08-14T08:50:31.917Z,94873.09
2022-08-14T08:53:04.380Z,94867.75
2022-08-14T08:55:37.102Z,94866.56
2022-08-14T08:58:12.739Z,94870.81
2022-08-14T09:00:54.052Z,94858.63
2022-08-14T09:03:27.454Z,94852.38
2022-08-14T09:05:58.308Z,94855.31
2022-08-14T09:08:33.100Z,94857.47
2022-08-14T09:11:19.514Z,94866.03
2022-08-14T09:13:52.012Z,94856.75
2022-08-14T09:16:26.265Z,94853.50
2022-08-14T09:18:55.226Z,94852.09
2022-08-14T09:21:24.897Z,94838.44
2022-08-14T09:24:26.300Z,94836.41
2022-08-14T09:27:00.334Z,94831.91
2022-08-14T09:29:29.145Z,94837.81
2022-08-14T09:32:04.370Z,94844.06
2022-08-14T09:35:04.502Z,94845.13
2022-08-14T09:37:45.943Z,94844.31
2022-08-14T09:40:29.245Z,94839.81
2022-08-14T09:43:10.029Z,94832.59
2022-08-14T09:45:53.428Z,94834.53
2022-08-14T09:48:30.179Z,94836.56
2022-08-14T09:54:19.624Z,94844.81
2022-08-14T09:56:30.821Z,94843.94
2022-08-14T09:59:10.704Z,94839.22
2022-08-14T10:01:40.370Z,94838.47
2022-08-14T10:04:35.691Z,94831.25
2022-08-14T10:07:08.111Z,94823.22
2022-08-14T10:09:57.766Z,94823.47
2022-08-14T10:12:50.203Z,94826.03
2022-08-14T10:15:31.487Z,94817.13
2022-08-14T10:18:17.219Z,94813.66
2022-08-14T10:20:55.295Z,94813.06
2022-08-14T10:23:25.417Z,94811.72
2022-08-14T10:25:58.971Z,94806.19
2022-08-14T10:29:17.715Z,94814.75
2022-08-14T10:31:43.179Z,94810.59
2022-08-14T10:34:14.886Z,94799.19
2022-08-14T10:36:48.137Z,94802.00
2022-08-14T10:39:20.434Z,94798.25
2022-08-14T10:41:53.994Z,94793.00
2022-08-14T10:44:29.568Z,94793.56
2022-08-14T10:47:36.467Z,94796.22
2022-08-14T10:49:58.203Z,94785.13
2022-08-14T10:52:33.900Z,94785.72
2022-08-14T10:55:13.988Z,94779.38
2022-08-14T10:57:50.017Z,94780.78
2022-08-14T11:00:29.823Z,94769.31
2022-08-14T11:03:09.523Z,94761.41
2022-08-14T11:05:43.322Z,94757.69
2022-08-14T11:08:12.745Z,94756.69
2022-08-14T11:10:44.464Z,94758.19
2022-08-14T11:13:17.475Z,94758.31
2022-08-14T11:15:48.828Z,94748.63
2022-08-14T11:18:20.291Z,94747.59
2022-08-14T11:21:00.309Z,94745.59
2022-08-14T11:23:38.113Z,94735.88
2022-08-14T11:26:20.235Z,94740.84
2022-08-14T11:28:50.119Z,94732.06
2022-08-14T11:31:23.558Z,94728.22
2022-08-14T11:33:57.437Z,94725.31
2022-08-14T11:37:01.986Z,94724.63
2022-08-14T11:39:33.317Z,94713.31
2022-08-14T11:42:55.726Z,94715.50
2022-08-14T11:44:53.779Z,94712.88
2022-08-14T11:47:26.125Z,94702.34
2022-08-14T11:49:54.884Z,94708.69
2022-08-14T11:52:22.804Z,94704.28
2022-08-14T11:55:00.519Z,94701.78
2022-08-14T11:57:30.393Z,94705.31
2022-08-14T12:00:03.466Z,94697.31
2022-08-14T12:07:49.997Z,94698.09
2022-08-14T12:10:27.252Z,94693.84
2022-08-14T12:13:11.583Z,94689.22
2022-08-14T12:15:38.329Z,94688.91
2022-08-14T12:18:19.370Z,94673.41
2022-08-14T12:20:52.434Z,94680.81
2022-08-14T12:23:23.181Z,94673.53
2022-08-14T12:32:41.973Z,94665.47
2022-08-14T12:35:10.994Z,94660.13
2022-08-14T12:37:40.072Z,94661.44
2022-08-14T12:40:13.756Z,94651.13
2022-08-14T12:42:53.606Z,94665.44
2022-08-14T12:46:26.698Z,94663.16
2022-08-14T12:48:57.889Z,94648.47
2022-08-14T12:51:27.558Z,94657.59
2022-08-14T12:53:59.702Z,94652.38
2022-08-14T12:56:34.159Z,94652.63
2022-08-14T12:59:03.242Z,94636.03
2022-08-14T13:01:59.478Z,94636.53
2022-08-14T13:04:23.171Z,94627.59
2022-08-14T13:06:52.869Z,94622.06
2022-08-14T13:09:23.171Z,94620.84
2022-08-14T13:11:58.833Z,94612.56
2022-08-14T13:14:45.577Z,94617.09
2022-08-14T13:17:13.861Z,94606.59
2022-08-14T13:19:45.618Z,94603.94
2022-08-14T13:22:28.782Z,94604.41
2022-08-14T13:25:05.169Z,94605.47
2022-08-14T13:27:38.510Z,94608.00
2022-08-14T13:30:10.213Z,94599.41
2022-08-14T13:32:40.476Z,94596.28
2022-08-14T13:35:11.076Z,94590.84
2022-08-14T13:37:44.791Z,94585.63
2022-08-14T13:40:13.641Z,94587.88
2022-08-14T13:42:44.762Z,94581.13
2022-08-14T13:45:17.346Z,94584.38
2022-08-14T13:47:48.065Z,94580.72
2022-08-14T13:55:14.090Z,94559.63
2022-08-14T13:57:49.436Z,94566.63
2022-08-14T14:00:18.181Z,94562.44
2022-08-14T14:02:48.285Z,94556.75
2022-08-14T14:05:18.076Z,94547.44
2022-08-14T14:07:47.482Z,94545.38
2022-08-14T14:10:28.242Z,94552.78
2022-08-14T14:20:55.053Z,94550.88
2022-08-14T14:23:22.927Z,94542.50
2022-08-14T14:25:56.269Z,94536.19
2022-08-14T14:28:30.502Z,94538.28
2022-08-14T14:31:01.320Z,94537.00
2022-08-14T14:33:49.507Z,94540.47
2022-08-14T14:36:21.425Z,94535.38
2022-08-14T14:43:54.192Z,94528.75
2022-08-14T14:46:22.122Z,94530.69
2022-08-14T14:49:05.549Z,94533.94
2022-08-14T14:51:32.012Z,94524.59
2022-08-14T14:53:58.390Z,94520.31
2022-08-14T14:56:49.812Z,94519.78
2022-08-14T14:59:12.875Z,94499.94
2022-08-14T15:01:41.519Z,94509.00
2022-08-14T15:04:19.798Z,94497.75
2022-08-14T15:06:49.134Z,94511.69
2022-08-14T15:09:17.813Z,94510.59
2022-08-14T15:11:47.093Z,94503.63
2022-08-14T15:14:55.357Z,94502.56
2022-08-14T15:17:06.433Z,94501.72
2022-08-14T15:19:34.472Z,94500.13
2022-08-14T15:22:02.362Z,94507.66
2022-08-14T15:24:30.113Z,94502.25
2022-08-14T15:26:59.798Z,94495.88
2022-08-14T15:29:28.863Z,94503.66
2022-08-14T15:31:58.737Z,94497.75
2022-08-14T15:34:43.216Z,94492.91
2022-08-14T15:37:16.762Z,94499.38
2022-08-14T15:42:28.927Z,94492.66
2022-08-14T15:45:01.709Z,94491.59
2022-08-14T15:47:31.636Z,94482.72
2022-08-14T15:50:01.227Z,94485.69
2022-08-14T15:52:32.592Z,94485.72
2022-08-14T15:55:04.573Z,94475.25
2022-08-14T15:57:32.343Z,94484.13
2022-08-14T16:00:37.784Z,94481.97
2022-08-14T16:03:16.826Z,94484.66
2022-08-14T16:05:46.071Z,94471.50
2022-08-14T16:08:29.745Z,94473.09
2022-08-14T16:11:00.632Z,94472.31
2022-08-14T16:13:39.326Z,94472.03
2022-08-14T16:16:49.115Z,94464.81
2022-08-14T16:19:19.256Z,94468.81
2022-08-14T16:22:02.514Z,94461.31
2022-08-14T16:24:59.689Z,94464.53
2022-08-14T16:27:37.114Z,94473.38
2022-08-14T16:30:20.369Z,94466.13
2022-08-14T16:32:56.594Z,94467.50
2022-08-14T16:35:42.386Z,94470.69
2022-08-14T16:38:19.354Z,94468.56
2022-08-14T16:41:23.337Z,94462.06
2022-08-14T16:43:59.192Z,94473.56
2022-08-14T16:46:28.014Z,94465.78
2022-08-14T16:48:59.931Z,94467.66
2022-08-14T16:51:29.525Z,94462.53
2022-08-14T16:53:58.917Z,94462.81
2022-08-14T16:56:30.792Z,94463.59
2022-08-14T16:59:12.077Z,94463.00
2022-08-14T17:01:42.837Z,94462.44
2022-08-14T17:04:14.627Z,94453.06
2022-08-14T17:07:06.780Z,94455.16
2022-08-14T17:10:27.981Z,94452.16
2022-08-14T17:13:17.638Z,94464.47
2022-08-14T17:16:30.888Z,94466.28
2022-08-14T17:25:56.085Z,94473.28
2022-08-14T17:28:50.439Z,94474.28
2022-08-14T17:34:02.235Z,94474.41
2022-08-14T17:40:15.536Z,94469.47
2022-08-14T17:46:07.279Z,94474.13
2022-08-14T17:49:14.125Z,94478.13
2022-08-14T17:51:30.011Z,94481.28
2022-08-14T17:54:02.682Z,94478.03
2022-08-14T17:56:32.360Z,94475.81
2022-08-14T17:59:05.756Z,94477.63
2022-08-14T18:01:37.754Z,94477.81
2022-08-14T18:04:25.052Z,94473.44
2022-08-14T18:07:16.531Z,94473.72
2022-08-14T18:09:57.493Z,94473.16
2022-08-14T18:12:36.560Z,94474.78
2022-08-14T18:15:15.969Z,94470.63
2022-08-14T18:17:50.697Z,94477.31
2022-08-14T18:21:41.591Z,94482.31
2022-08-14T18:23:12.868Z,94477.97
2022-08-14T18:25:48.414Z,94486.72
2022-08-14T18:28:18.319Z,94482.63
2022-08-14T18:31:42.221Z,94485.47
2022-08-14T18:34:31.613Z,94492.06
2022-08-14T18:37:14.339Z,94492.78
2022-08-14T18:40:00.994Z,94485.44
2022-08-14T18:42:44.271Z,94504.53
2022-08-14T18:45:15.872Z,94506.88
2022-08-14T18:48:14.593Z,94491.94
2022-08-14T18:50:53.404Z,94500.91
2022-08-14T18:53:24.476Z,94499.78
2022-08-14T18:55:56.147Z,94507.31
2022-08-14T18:58:34.067Z,94509.06
2022-08-14T19:01:06.617Z,94502.31
2022-08-14T19:03:57.565Z,94509.97
2022-08-14T19:06:55.929Z,94521.38
2022-08-14T19:09:52.787Z,94512.25
2022-08-14T19:13:00.233Z,94515.59
2022-08-14T19:15:29.578Z,94518.44
2022-08-14T19:18:14.996Z,94519.66
2022-08-14T19:20:52.795Z,94522.72
2022-08-14T19:23:42.639Z,94522.66
2022-08-14T19:26:36.377Z,94517.47
2022-08-14T19:29:36.198Z,94518.84
2022-08-14T19:32:26.971Z,94525.94
2022-08-14T19:34:55.680Z,94520.03
2022-08-14T19:37:52.345Z,94519.22
2022-08-14T19:40:33.390Z,94525.28
2022-08-14T19:43:06.333Z,94522.28
2022-08-14T19:45:35.145Z,94529.47
2022-08-14T19:48:03.192Z,94518.16
2022-08-14T19:50:38.760Z,94535.66
2022-08-14T19:53:17.113Z,94529.41
2022-08-14T19:55:58.503Z,94528.28
2022-08-14T19:58:38.336Z,94531.97
2022-08-14T20:01:36.711Z,94536.56
2022-08-14T20:04:08.156Z,94535.31
2022-08-14T20:06:56.284Z,94534.06
2022-08-14T20:11:04.237Z,94531.03
2022-08-14T20:12:28.852Z,94522.97
2022-08-14T20:15:08.998Z,94526.97
2022-08-14T20:17:40.359Z,94531.56
2022-08-14T20:20:24.392Z,94527.69
2022-08-14T20:23:01.902Z,94532.69
2022-08-14T20:25:37.800Z,94541.66
2022-08-14T20:28:29.487Z,94534.25
2022-08-14T20:31:13.822Z,94543.50
2022-08-14T20:34:01.691Z,94547.69
2022-08-14T20:36:31.417Z,94548.97
2022-08-14T20:39:00.687Z,94533.81
2022-08-14T20:41:29.762Z,94533.34
2022-08-14T20:44:20.844Z,94544.88
2022-08-14T20:46:53.246Z,94532.13
2022-08-14T20:49:29.248Z,94542.59
2022-08-14T20:52:00.206Z,94541.78
2022-08-14T20:54:36.885Z,94553.34
2022-08-14T20:57:18.755Z,94545.16
2022-08-14T20:59:51.379Z,94546.41
2022-08-14T21:02:29.578Z,94547.56
2022-08-14T21:05:00.671Z,94546.56
2022-08-14T21:07:36.272Z,94551.03
2022-08-14T21:10:33.182Z,94548.19
2022-08-14T21:13:27.627Z,94549.47
2022-08-14T21:15:57.358Z,94544.88
2022-08-14T21:18:29.507Z,94558.84
2022-08-14T21:20:58.960Z,94560.03
2022-08-14T21:23:32.514Z,94558.91
2022-08-14T21:26:01.047Z,94572.75
2022-08-14T21:28:34.828Z,94568.69
2022-08-14T21:31:04.153Z,94570.94
2022-08-14T21:33:36.377Z,94563.41
2022-08-14T21:36:07.977Z,94569.94
2022-08-14T21:38:38.177Z,94568.13
2022-08-14T21:41:42.309Z,94561.97
2022-08-14T21:44:17.910Z,94561.66
2022-08-14T21:46:49.983Z,94557.34
2022-08-14T21:49:22.476Z,94550.66
2022-08-14T21:51:57.776Z,94550.34
2022-08-14T21:54:49.654Z,94552.19
2022-08-14T21:58:45.972Z,94552.91
2022-08-14T22:00:30.501Z,94560.88
2022-08-14T22:03:03.723Z,94555.56
2022-08-14T22:05:32.979Z,94564.13
2022-08-14T22:08:03.387Z,94567.72
2022-08-14T22:10:34.895Z,94565.69
2022-08-14T22:13:02.920Z,94573.56
2022-08-14T22:15:33.557Z,94566.72
2022-08-14T22:18:02.263Z,94574.88
2022-08-14T22:20:30.207Z,94573.25
2022-08-14T22:30:21.229Z,94568.78
2022-08-14T22:32:56.453Z,94569.63
2022-08-14T22:35:25.108Z,94571.00
2022-08-14T22:38:34.694Z,94572.63
2022-08-14T22:41:02.227Z,94572.97
2022-08-14T22:43:25.909Z,94566.03
2022-08-14T22:45:55.401Z,94563.97
2022-08-14T22:54:52.193Z,94556.44
2022-08-14T22:57:21.309Z,94560.03
2022-08-14T22:59:50.451Z,94558.66
2022-08-14T23:02:30.460Z,94551.56
2022-08-14T23:04:59.282Z,94551.00
2022-08-14T23:08:58.978Z,94550.56
2022-08-14T23:10:33.937Z,94552.50
2022-08-14T23:13:04.143Z,94553.91
2022-08-14T23:15:33.530Z,94558.44
2022-08-14T23:18:03.338Z,94552.06
2022-08-14T23:20:31.833Z,94554.84
2022-08-14T23:22:59.773Z,94548.94
2022-08-14T23:25:57.870Z,94552.66
2022-08-14T23:28:34.282Z,94543.88
2022-08-14T23:34:41.247Z,94542.03
2022-08-14T23:37:39.592Z,94542.56
2022-08-14T23:40:29.786Z,94540.16
2022-08-14T23:43:28.304Z,94538.50
2022-08-14T23:45:59.917Z,94536.44
2022-08-14T23:48:28.675Z,94539.31
2022-08-14T23:50:58.739Z,94540.91
2022-08-14T23:53:48.437Z,94534.81
2022-08-14T23:59:19.491Z,94526.84
